Terminal Aerodrome Forecast
Issued by NWS

Home | Current Version | Previous Version | Text Only | Print | Product List | Glossary On
Versions: 1 2 3 4 5 6 7 8 9 10 11 12 13 14 15 16 17 18 19 20 21 22 23 24 25 26 27 28 29
000
FTUS43 KGRB 310500
TAFRHI
TAF
KRHI 310520Z 3106/0106 VRB03KT 6SM BR SCT100
      TEMPO 3106/3108 1 1/2SM BR SCT005
     FM310800 VRB02KT 3SM BR SCT002
      TEMPO 3108/3112 1/4SM FG BKN002
     FM311400 30006KT P6SM SCT030 SCT100=

USA.gov is the U.S. government's official web portal to all federal, state and local government web resources and services.